Medimont, ID

8:25 PM PDT on September 20, 2014 (GMT -0700)
ITD Black Lake ID US | Change Station
CLOSE
Current Station
Personal Weather Station
Location: Medimont, ID
Elevation: 2744 ft
Nearby Weather Stations
Active Advisory: Air Quality Alert

Elev 2744 ft 47.43 °N, 116.63 °W | Updated 40 minutes ago

Clear
Clear
72 °F
Feels Like 77 °F
N
3
Wind Variable Wind from NE
Gusts 4.0 mph

Today
High -- | Low -- °F
--% Chance of Precip.
Yesterday
High -- | Low -- °F
Precip. -- in
6:30 AM 6:47 PM
Waning Crescent, 9% visible
Pressure 30.06 in
Visibility 10.0 miles
Clouds Clear
Heat Index 77 °F
Dew Point 47 °F
Humidity 41%
Rainfall 0.00 in
Snow Depth 0 in , 0 in , 0 in
UV 0 out of 12
Pollen 7.80 out of 12
Air Quality Not available.
Flu Activity Not available.
METAR KCOE 210315Z AUTO 03008KT 10SM CLR 20/08 A3006 RMK AO1

More Conditions Fewer Conditions

Pressure 30.06 in
Visibility 10.0 miles
Clouds Clear
Heat Index 77 °F
Dew Point 47 °F
Humidity 41%
Rainfall 0.00 in
Snow Depth 0 in , 0 in , 0 in
UV 0 out of 12
Pollen 7.80 out of 12
Air Quality Not available.
Flu Activity Not available.
METAR KCOE 210315Z AUTO 03008KT 10SM CLR 20/08 A3006 RMK AO1

More Conditions Fewer Conditions

10-Day Weather Forecast

Almanac

Astronomy

Sep. 20, 2014 Rise Set
Actual Time 6:30 AM PDT 6:47 PM PDT
Civil Twilight 5:59 AM PDT 7:18 PM PDT
Nautical Twilight 5:23 AM PDT 7:54 PM PDT
Astronomical Twilight 4:45 AM PDT 8:31 PM PDT
Moon 3:02 AM PDT (9/20) 5:02 PM PDT (9/20)
Length of Visible Light 13h 18m
Length of Day
12h 17m
Tomorrow will be 3m 23s shorter.
Waning Crescent, 9% of the Moon is Illuminated
Today
Waning Crescent
Sep 24
New
Oct 1
First Quarter
Oct 8
Full
Oct 15
Last Quarter

Today's Extremes

State Highs State Lows

Community

WunderPhotos

Upload Photos

1,755,070 photos uploaded!

WunderBlogs® & News

Nearby

Snow Depth

Station Depth Elevation
White Elephant 0 in 7710 ft
Big Creek Summit 0 in 6580 ft
Bear Basin 0 in 5350 ft
Sheep Mountain 0 in 6570 ft
Somsen Ranch 0 in 6800 ft

Earthquake Activity

City Distance Mag. Time & Date
No recent earthquake activity has been reported nearby.
Minimum magnitude displayed is 2.5.

Coastal Water Temperatures

Place Temperature
No Stations Reporting

Nearby Weather Stations